Huvudsida
METAR-TAF:

METAR-TAF

Flygplatser :

Berns flygplats

Bern, Schweiz

latitud: 46-55N, longitud: 007-30E, höjd: 505 m

Aktuellt väderrapport

Denna rapport gjordes för 39 minuter sedan, klockan 13:50 UTC
Vind 3 kt från syd/sydost, varierande mellan ost/sydost och sydväst
Temperatur 15°C
Fuktighet 44%
Tryck 1028 hPa
Sikt 10 km eller mer
Inga moln under 1 500 m eller inga cumulonimbus

METAR: LSZB 221350Z 16003KT 120V220 CAVOK 15/03 Q1028 NOSIG

Tid: 15:29 (14:29 UTC)

Väderprognos

Denna rapport gjordes för 3 timmar och 4 minuter sedan, klockan 11:25 UTC
Prognos gäller från 22 kl. 12 UTC till 22 kl. 21 UTC
Vind 5 kt från nordväst
Sikt 10 km eller mer
Inga moln under 1 500 m eller inga cumulonimbus

TAF: LSZB 221125Z 2212/2221 31005KT CAVOK

Aktuella väderrapporter och prognoser från 4000 flygplatser (METAR- och TAF-rapporter).

De tillgängliga stationerna syns som gula och röda prickar på kartan.

För musen över prickarna för att se namnen på stationerna.

Klicka sedan för att få väderrapporter och prognoser.

För att ändra kartan: Klicka på de gröna knapparna med ett svart kors på för att zooma in; den gröna knappen med ett streck på för att zooma ut; eller på de gröna pilarna för angränsande kartor.


METAR-TAF: